Time;durP1;ratioP1;P1;durP2;ratioP2;P2;SDS_P1;SDS_P2;PMS_P1;PMS_P2;Temp;Humidity;BMP_temperature;BMP_pressure;BME280_temperature;BME280_humidity;BME280_pressure;Samples;Min_cycle;Max_cycle;Signal;HPM_P1;HPM_P2
2021/03/05 00:00:12;;;;;;;31.35;11.23;;;11.40;55.30;;;;;;5049940;28;20051;-86
2021/03/05 00:02:38;;;;;;;41.42;12.82;;;;;;;;;;5049756;28;20020;-85
2021/03/05 00:05:05;;;;;;;27.98;11.90;;;;;;;;;;5064718;28;20089;-85
2021/03/05 00:07:31;;;;;;;23.10;10.93;;;;;;;;;;5063311;28;20485;-86
2021/03/05 00:09:57;;;;;;;29.70;12.90;;;;;;;;;;5066423;28;20045;-86
2021/03/05 00:12:23;;;;;;;53.63;22.25;;;;;;;;;;5053901;28;20447;-85
2021/03/05 00:14:49;;;;;;;34.08;17.65;;;;;;;;;;5065742;28;20481;-86
2021/03/05 00:17:15;;;;;;;36.75;16.13;;;;;;;;;;5068596;28;20028;-84
2021/03/05 00:19:41;;;;;;;25.10;10.75;;;;;;;;;;5061761;28;20067;-84
2021/03/05 00:22:08;;;;;;;27.10;11.73;;;;;;;;;;5049170;28;20490;-86
2021/03/05 00:24:34;;;;;;;26.98;10.48;;;11.10;57.70;;;;;;5064020;28;20032;-85
2021/03/05 00:27:00;;;;;;;26.67;12.23;;;;;;;;;;5050393;28;20043;-86
2021/03/05 00:29:26;;;;;;;27.90;13.57;;;;;;;;;;5049505;28;20024;-86
2021/03/05 00:31:52;;;;;;;21.55;10.93;;;;;;;;;;5050537;28;20739;-86
2021/03/05 00:34:18;;;;;;;34.10;13.05;;;;;;;;;;5065625;28;20025;-85
2021/03/05 00:36:44;;;;;;;21.85;9.60;;;;;;;;;;5068056;28;20078;-84
2021/03/05 00:39:10;;;;;;;26.25;9.82;;;;;;;;;;5046559;28;20033;-86
2021/03/05 00:41:36;;;;;;;21.27;9.02;;;;;;;;;;5060781;28;20019;-84
2021/03/05 00:44:05;;;;;;;24.52;9.73;;;11.40;53.60;;;;;;5049141;28;20028;-85
2021/03/05 00:46:32;;;;;;;23.27;9.20;;;;;;;;;;5065582;28;20027;-85
2021/03/05 00:48:59;;;;;;;25.80;11.23;;;;;;;;;;5064223;28;20080;-86
2021/03/05 00:51:25;;;;;;;28.10;10.25;;;;;;;;;;5048736;28;20493;-85
2021/03/05 00:53:51;;;;;;;20.30;9.23;;;;;;;;;;5050105;28;20444;-85
2021/03/05 00:56:17;;;;;;;19.90;8.45;;;;;;;;;;5067203;28;20091;-85
2021/03/05 00:58:43;;;;;;;19.48;7.13;;;;;;;;;;5071302;28;20032;-84
2021/03/05 01:01:09;;;;;;;21.45;10.32;;;;;;;;;;5052509;28;20429;-85
2021/03/05 01:03:35;;;;;;;18.98;10.60;;;;;;;;;;5068603;28;20036;-85
2021/03/05 01:06:01;;;;;;;25.17;11.20;;;;;;;;;;5067656;28;20020;-86
2021/03/05 01:08:27;;;;;;;22.55;11.32;;;;;;;;;;5067222;28;20028;-85
2021/03/05 01:10:54;;;;;;;28.48;10.35;;;;;;;;;;5064263;28;20035;-85
2021/03/05 01:13:20;;;;;;;24.75;10.77;;;;;;;;;;5070192;28;20543;-86
2021/03/05 01:15:45;;;;;;;20.77;8.68;;;11.30;76.70;;;;;;5070808;28;20038;-85
2021/03/05 01:18:11;;;;;;;27.75;10.77;;;;;;;;;;5069953;28;20029;-85
2021/03/05 01:20:37;;;;;;;22.52;9.27;;;;;;;;;;5048773;28;20021;-84
2021/03/05 01:23:04;;;;;;;21.98;8.68;;;;;;;;;;5069155;28;20036;-84
2021/03/05 01:25:32;;;;;;;28.38;8.75;;;10.70;56.70;;;;;;5071117;28;20028;-85
2021/03/05 01:27:58;;;;;;;;;;;10.60;57.30;;;;;;5054215;28;20941;-85
2021/03/05 01:30:24;;;;;;;21.58;9.10;;;;;;;;;;5071476;28;19919;-85
2021/03/05 01:32:51;;;;;;;25.45;10.75;;;10.40;58.20;;;;;;5046801;28;20051;-85
2021/03/05 01:35:22;;;;;;;24.10;10.60;;;10.50;57.90;;;;;;5052336;28;20072;-85
2021/03/05 01:37:48;;;;;;;17.85;10.55;;;10.50;58.10;;;;;;5056545;28;20495;-85
2021/03/05 01:40:17;;;;;;;27.33;9.93;;;10.80;57.40;;;;;;5065530;28;20159;-84
2021/03/05 01:42:43;;;;;;;24.10;10.18;;;;;;;;;;5068981;28;20115;-85
2021/03/05 01:45:17;;;;;;;18.80;8.75;;;11.10;56.70;;;;;;5070753;28;20028;-85
2021/03/05 01:47:47;;;;;;;38.28;12.63;;;;;;;;;;5064404;28;20028;-84
2021/03/05 01:50:20;;;;;;;41.00;10.57;;;11.10;55.90;;;;;;5065002;28;20044;-84
2021/03/05 01:52:48;;;;;;;31.95;11.45;;;11.00;56.40;;;;;;5070385;28;20024;-84
2021/03/05 01:55:14;;;;;;;41.38;12.63;;;;;;;;;;5067767;28;20079;-85
2021/03/05 01:57:40;;;;;;;33.35;12.55;;;;;;;;;;5068774;28;20039;-85
2021/03/05 02:00:08;;;;;;;27.35;11.02;;;;;;;;;;5069800;28;20035;-85
2021/03/05 02:02:34;;;;;;;31.13;13.90;;;;;;;;;;5062682;28;20497;-84
2021/03/05 02:05:00;;;;;;;24.05;10.07;;;;;;;;;;5070029;28;20032;-86
2021/03/05 02:07:26;;;;;;;29.38;12.27;;;;;;;;;;5067442;28;20031;-85
2021/03/05 02:09:52;;;;;;;43.55;14.73;;;;;;;;;;5068422;28;20021;-85
2021/03/05 02:12:18;;;;;;;47.22;16.77;;;;;;;;;;5053187;28;20063;-85
2021/03/05 02:14:44;;;;;;;37.92;15.65;;;13.40;60.50;;;;;;5068552;28;20079;-84
2021/03/05 02:18:03;;;;;;;48.42;17.38;;;10.60;58.00;;;;;;5068550;28;20035;-85
2021/03/05 02:20:48;;;;;;;23.42;9.82;;;10.70;78.40;;;;;;4985127;28;20037;-85
2021/03/05 02:23:22;;;;;;;21.83;8.90;;;10.90;57.50;;;;;;4982127;28;20030;-85
2021/03/05 02:26:24;;;;;;;28.35;9.88;;;10.80;57.60;;;;;;4979770;28;20499;-87
2021/03/05 02:29:18;;;;;;;25.92;12.00;;;10.80;57.60;;;;;;4978710;28;20081;-85
2021/03/05 02:31:44;;;;;;;33.55;13.70;;;;;;;;;;4986458;28;20048;-84
2021/03/05 02:34:30;;;;;;;25.42;12.10;;;11.10;57.20;;;;;;4976575;28;20051;-85
2021/03/05 02:37:08;;;;;;;25.02;9.40;;;11.10;57.20;;;;;;4965620;28;20873;-85
2021/03/05 02:40:00;;;;;;;22.27;8.90;;;11.00;57.10;;;;;;4981647;28;20034;-86
2021/03/05 02:42:30;;;;;;;25.08;11.43;;;10.90;74.40;;;;;;4971636;28;20145;-85
2021/03/05 02:44:59;;;;;;;23.17;10.98;;;10.90;57.20;;;;;;4986542;28;20398;-86
2021/03/05 02:47:25;;;;;;;23.85;10.68;;;;;;;;;;4986546;28;20122;-84
2021/03/05 02:49:55;;;;;;;21.08;9.65;;;11.00;57.20;;;;;;4979247;28;20051;-85
2021/03/05 02:52:22;;;;;;;25.70;10.18;;;11.00;56.70;;;;;;4977955;28;20074;-85
2021/03/05 02:55:03;;;;;;;22.13;9.60;;;10.90;56.70;;;;;;5058252;28;20043;-85
2021/03/05 02:57:31;;;;;;;28.65;9.65;;;;;;;;;;5069686;28;20775;-85
2021/03/05 02:59:58;;;;;;;21.80;9.60;;;11.00;56.90;;;;;;5067894;28;20485;-86
2021/03/05 03:02:26;;;;;;;23.13;11.07;;;11.00;57.00;;;;;;5048292;28;20433;-84
2021/03/05 03:04:53;;;;;;;23.42;10.40;;;;;;;;;;5068303;28;20039;-85
2021/03/05 03:07:19;;;;;;;25.02;10.05;;;10.90;57.10;;;;;;5063480;28;20388;-85
2021/03/05 03:09:45;;;;;;;19.27;9.95;;;;;;;;;;5063047;28;20040;-84
2021/03/05 03:12:14;;;;;;;20.85;9.00;;;10.90;57.20;;;;;;5050880;28;20016;-85
2021/03/05 03:14:41;;;;;;;20.75;9.15;;;10.90;57.20;;;;;;5066293;28;20141;-85
2021/03/05 03:17:08;;;;;;;31.23;9.77;;;;;;;;;;5047679;28;20497;-84
2021/03/05 03:19:35;;;;;;;23.63;9.03;;;;;;;;;;5045871;28;20029;-83
2021/03/05 03:22:02;;;;;;;27.88;11.93;;;;;;;;;;5066576;28;20373;-85
2021/03/05 03:24:29;;;;;;;;;;;10.70;58.10;;;;;;5051614;28;20032;-87
2021/03/05 03:26:55;;;;;;;25.55;11.35;;;;;;;;;;5046368;28;19948;-85
2021/03/05 03:29:21;;;;;;;24.63;8.25;;;;;;;;;;5067018;28;20028;-86
2021/03/05 03:31:47;;;;;;;16.98;9.18;;;;;;;;;;5064467;28;20425;-85
2021/03/05 03:34:14;;;;;;;24.33;9.68;;;;;;;;;;5066912;28;20086;-85
2021/03/05 03:36:41;;;;;;;19.23;8.65;;;11.10;57.00;;;;;;5067761;28;20021;-84
2021/03/05 03:39:10;;;;;;;22.27;7.95;;;;;;;;;;5082781;28;20412;-84
2021/03/05 03:41:37;;;;;;;14.88;7.65;;;11.20;57.00;;;;;;5049880;28;20036;-84
2021/03/05 03:44:13;;;;;;;22.35;7.38;;;;;;;;;;5064643;28;20028;-84
2021/03/05 03:46:49;;;;;;;18.27;7.82;;;11.40;77.00;;;;;;5068793;28;20027;-85
2021/03/05 03:49:32;;;;;;;16.03;7.10;;;11.40;56.00;;;;;;5064634;28;20124;-85
2021/03/05 03:52:22;;;;;;;18.10;7.75;;;11.40;56.70;;;;;;5060117;28;20800;-87
2021/03/05 03:54:50;;;;;;;29.10;9.98;;;11.30;57.10;;;;;;5046951;28;20029;-87
2021/03/05 03:57:17;;;;;;;15.77;6.78;;;11.00;58.00;;;;;;5063396;28;20021;-87
2021/03/05 03:59:43;;;;;;;21.27;6.83;;;;;;;;;;5050184;28;20131;-88
2021/03/05 04:02:10;;;;;;;19.90;7.70;;;11.20;57.60;;;;;;5050892;28;20493;-87
2021/03/05 04:04:38;;;;;;;15.43;6.40;;;;;;;;;;5068653;28;20028;-87
2021/03/05 04:07:06;;;;;;;;;;;11.30;57.30;;;;;;5048571;28;20053;-87
2021/03/05 04:09:35;;;;;;;19.75;7.32;;;11.30;57.80;;;;;;5050611;28;19958;-87
2021/03/05 04:12:02;;;;;;;19.45;7.88;;;;;;;;;;5062567;28;20055;-87
2021/03/05 04:14:28;;;;;;;24.48;8.98;;;;;;;;;;5065907;28;20031;-87
2021/03/05 04:16:54;;;;;;;17.08;8.90;;;11.10;57.10;;;;;;5068077;28;20040;-86
2021/03/05 04:19:22;;;;;;;16.15;7.82;;;;;;;;;;5049548;28;20577;-87
2021/03/05 04:21:48;;;;;;;17.95;9.25;;;;;;;;;;5062297;28;20075;-88
2021/03/05 04:24:15;;;;;;;18.00;7.45;;;10.90;57.80;;;;;;5067017;28;20052;-87
2021/03/05 04:26:41;;;;;;;22.73;7.88;;;;;;;;;;5062687;28;20044;-86
2021/03/05 04:29:07;;;;;;;19.40;8.88;;;;;;;;;;5071912;28;20024;-86
2021/03/05 04:31:33;;;;;;;19.75;7.78;;;;;;;;;;5053138;28;20576;-87
2021/03/05 04:33:59;;;;;;;18.88;7.18;;;;;;;;;;5052781;28;20031;-86
2021/03/05 04:36:25;;;;;;;14.98;6.20;;;;;;;;;;5050943;28;20043;-87
2021/03/05 04:38:51;;;;;;;40.47;10.95;;;;;;;;;;5068652;28;20366;-86
2021/03/05 04:41:17;;;;;;;22.05;8.25;;;;;;;;;;5068347;28;20074;-87
2021/03/05 04:43:43;;;;;;;20.77;8.65;;;;;;;;;;5066936;28;20044;-87
2021/03/05 04:46:09;;;;;;;17.65;8.30;;;;;;;;;;5054062;28;20087;-87
2021/03/05 04:48:35;;;;;;;24.20;10.85;;;;;;;;;;5052417;28;20486;-87
2021/03/05 04:51:01;;;;;;;12.75;7.70;;;;;;;;;;5052877;28;20040;-86
2021/03/05 04:53:27;;;;;;;19.05;8.48;;;;;;;;;;5051650;28;20029;-87
2021/03/05 04:55:53;;;;;;;29.23;8.05;;;;;;;;;;5055049;28;20032;-87
2021/03/05 04:58:19;;;;;;;19.33;7.57;;;;;;;;;;5071577;28;20477;-86
2021/03/05 05:00:45;;;;;;;13.63;7.40;;;;;;;;;;5070952;28;20031;-88
2021/03/05 05:03:11;;;;;;;26.65;7.80;;;;;;;;;;5052433;28;20020;-86
2021/03/05 05:05:39;;;;;;;15.23;7.43;;;;;;;;;;5069057;28;20036;-85
2021/03/05 05:08:05;;;;;;;14.27;9.68;;;;;;;;;;5070171;28;20032;-85
2021/03/05 05:10:31;;;;;;;20.13;7.38;;;;;;;;;;5067601;28;20040;-83
2021/03/05 05:12:57;;;;;;;18.77;9.02;;;;;;;;;;5051313;28;20560;-85
2021/03/05 05:15:22;;;;;;;19.52;6.18;;;11.60;77.40;;;;;;5070079;28;20024;-86
2021/03/05 05:17:49;;;;;;;20.05;7.25;;;;;;;;;;5054930;28;20024;-84
2021/03/05 05:20:15;;;;;;;15.75;7.28;;;;;;;;;;5068586;28;20057;-84
2021/03/05 05:22:41;;;;;;;13.70;6.18;;;;;;;;;;5069678;28;20492;-84
2021/03/05 05:25:07;;;;;;;15.20;6.95;;;;;;;;;;5071018;28;20040;-85
2021/03/05 05:27:33;;;;;;;15.23;5.75;;;11.70;61.90;;;;;;5072405;28;20024;-86
2021/03/05 05:30:00;;;;;;;14.55;5.53;;;;;;;;;;5069527;28;20723;-85
2021/03/05 05:32:26;;;;;;;16.70;7.18;;;;;;;;;;5069456;28;20086;-85
2021/03/05 05:34:52;;;;;;;17.58;5.38;;;;;;;;;;5066523;28;20025;-86
2021/03/05 05:37:18;;;;;;;14.75;5.57;;;;;;;;;;5067899;28;20032;-85
2021/03/05 05:39:44;;;;;;;21.27;6.40;;;;;;;;;;5067674;28;20036;-85
2021/03/05 05:42:10;;;;;;;19.20;6.05;;;;;;;;;;5070524;28;20037;-86
2021/03/05 05:44:36;;;;;;;11.18;6.20;;;11.70;75.50;;;;;;5051556;28;20025;-85
2021/03/05 05:47:03;;;;;;;22.05;6.68;;;11.70;54.60;;;;;;5053806;28;20036;-84
2021/03/05 05:49:29;;;;;;;17.23;5.78;;;;;;;;;;5049857;28;20053;-86
2021/03/05 05:52:03;;;;;;;9.05;5.00;;;11.80;54.20;;;;;;5049359;28;20523;-85
2021/03/05 05:54:31;;;;;;;17.15;7.07;;;11.80;54.10;;;;;;5071184;28;20413;-86
2021/03/05 05:56:57;;;;;;;16.70;5.90;;;;;;;;;;5049204;28;20036;-85
2021/03/05 05:59:25;;;;;;;12.85;7.13;;;11.90;53.80;;;;;;5052436;28;20017;-86
2021/03/05 06:01:51;;;;;;;;;;;11.90;53.60;;;;;;5065798;28;20037;-86
2021/03/05 06:04:17;;;;;;;11.98;5.60;;;;;;;;;;5062518;28;19908;-85
2021/03/05 06:06:43;;;;;;;15.70;5.57;;;;;;;;;;5066809;28;20097;-85
2021/03/05 06:09:09;;;;;;;8.93;5.07;;;;;;;;;;5066690;28;20032;-84
2021/03/05 06:11:36;;;;;;;12.60;5.55;;;;;;;;;;5048383;28;20028;-85
2021/03/05 06:14:09;;;;;;;11.40;5.30;;;11.70;53.90;;;;;;5063780;28;20025;-85
2021/03/05 06:16:50;;;;;;;19.67;6.32;;;11.70;54.20;;;;;;5067048;28;20036;-85
2021/03/05 06:19:17;;;;;;;19.58;5.82;;;11.70;54.20;;;;;;5068334;28;20017;-84
2021/03/05 06:21:43;;;;;;;12.15;4.85;;;;;;;;;;5063816;28;20031;-85
2021/03/05 06:24:09;;;;;;;26.30;10.00;;;11.70;72.70;;;;;;5059255;28;20028;-85
2021/03/05 06:26:55;;;;;;;27.50;10.05;;;;;;;;;;5048832;28;20028;-85
2021/03/05 06:29:28;;;;;;;25.17;8.95;;;;;;;;;;5050740;28;20116;-85
2021/03/05 06:32:02;;;;;;;32.03;12.05;;;11.30;56.70;;;;;;5058290;28;20097;-84
2021/03/05 06:34:29;;;;;;;22.80;8.98;;;11.20;56.80;;;;;;5048237;28;20040;-85
2021/03/05 06:37:03;;;;;;;18.48;7.13;;;11.30;56.10;;;;;;5056095;28;20025;-85
2021/03/05 06:39:29;;;;;;;18.42;5.97;;;;;;;;;;5064316;28;20543;-84
2021/03/05 06:42:01;;;;;;;13.80;7.20;;;;;;;;;;5062700;28;20035;-84
2021/03/05 06:44:28;;;;;;;20.33;7.50;;;;;;;;;;5040904;28;20089;-85
2021/03/05 06:46:54;;;;;;;10.07;4.55;;;;;;;;;;5061341;28;20033;-88
2021/03/05 06:49:21;;;;;;;10.88;5.50;;;;;;;;;;5059533;28;20498;-87
2021/03/05 06:51:54;;;;;;;11.45;5.55;;;11.50;68.00;;;;;;5047438;28;20049;-87
2021/03/05 06:54:21;;;;;;;14.68;6.72;;;11.60;55.60;;;;;;5063785;28;20090;-87
2021/03/05 06:56:52;;;;;;;10.30;5.37;;;11.40;55.80;;;;;;5066361;28;20036;-87
2021/03/05 06:59:20;;;;;;;7.05;4.07;;;;;;;;;;5067881;28;20489;-87
2021/03/05 07:01:59;;;;;;;13.43;6.13;;;11.40;75.80;;;;;;5064840;28;20056;-86
2021/03/05 07:04:30;;;;;;;14.73;5.50;;;11.50;56.50;;;;;;5042057;28;20067;-87
2021/03/05 07:07:07;;;;;;;15.20;4.95;;;11.40;75.80;;;;;;5049559;28;20115;-86
2021/03/05 07:09:40;;;;;;;13.07;4.88;;;;;;;;;;5050274;28;20025;-87
2021/03/05 07:12:20;;;;;;;10.15;5.30;;;11.60;54.50;;;;;;5070427;28;20067;-87
2021/03/05 07:15:06;;;;;;;10.20;5.28;;;11.80;57.10;;;;;;5066160;28;20028;-86
2021/03/05 07:17:31;;;;;;;18.98;4.60;;;;;;;;;;5065439;28;20062;-86
2021/03/05 07:19:58;;;;;;;19.75;7.30;;;;;;;;;;5062742;28;20048;-87
2021/03/05 07:22:26;;;;;;;9.25;4.75;;;11.90;52.70;;;;;;5068151;28;20090;-86
2021/03/05 07:24:54;;;;;;;16.60;5.00;;;11.90;53.10;;;;;;5064965;28;20025;-87
2021/03/05 07:27:36;;;;;;;8.23;4.32;;;11.90;52.80;;;;;;5041459;28;20029;-87
2021/03/05 07:30:03;;;;;;;19.98;6.45;;;11.80;52.50;;;;;;5053860;28;20094;-87
2021/03/05 07:32:39;;;;;;;13.88;5.03;;;11.60;53.10;;;;;;5052531;28;20031;-86
2021/03/05 07:35:06;;;;;;;12.63;5.03;;;11.70;53.10;;;;;;5062309;28;20076;-85
2021/03/05 07:37:37;;;;;;;11.07;5.68;;;11.80;52.90;;;;;;5042710;28;20040;-84
2021/03/05 07:40:05;;;;;;;10.70;6.28;;;;;;;;;;5046271;28;20047;-84
2021/03/05 07:42:32;;;;;;;21.80;4.90;;;11.70;53.60;;;;;;5063343;28;20023;-84
2021/03/05 07:44:59;;;;;;;13.60;5.25;;;;;;;;;;5064539;28;20040;-84
2021/03/05 07:47:26;;;;;;;10.85;5.20;;;11.70;53.20;;;;;;5065733;28;20040;-84
2021/03/05 07:49:57;;;;;;;9.25;4.35;;;11.70;53.50;;;;;;5059376;28;20052;-84
2021/03/05 07:52:24;;;;;;;17.90;6.75;;;;;;;;;;5047859;28;20029;-84
2021/03/05 07:54:50;;;;;;;14.02;6.10;;;11.70;53.50;;;;;;5063892;28;20025;-83
2021/03/05 07:57:18;;;;;;;11.93;5.88;;;11.80;53.70;;;;;;5067433;28;20509;-84
2021/03/05 07:59:51;;;;;;;9.00;5.20;;;11.80;53.60;;;;;;5065401;28;20048;-85
2021/03/05 08:02:19;;;;;;;13.10;6.50;;;11.90;53.00;;;;;;5063111;28;20051;-85
2021/03/05 08:04:56;;;;;;;11.43;6.25;;;;;;;;;;5037458;28;20101;-83
2021/03/05 08:07:23;;;;;;;10.38;4.43;;;11.70;53.00;;;;;;5058859;28;20033;-84
2021/03/05 08:09:50;;;;;;;10.10;4.82;;;;;;;;;;5059131;28;20029;-85
2021/03/05 08:15:07;;;;;;;9.98;4.65;;;11.70;53.50;;;;;;5066364;28;20036;-83
2021/03/05 08:17:40;;;;;;;9.55;4.70;;;11.70;53.70;;;;;;5066878;28;20838;-86
2021/03/05 08:20:29;;;;;;;11.93;6.50;;;11.60;53.30;;;;;;5063992;28;20028;-84
2021/03/05 08:23:02;;;;;;;11.93;5.88;;;;;;;;;;5052884;28;20039;-88
2021/03/05 08:25:46;;;;;;;15.30;6.53;;;11.60;53.90;;;;;;5077959;28;20032;-85
2021/03/05 08:28:38;;;;;;;11.52;4.65;;;11.60;54.00;;;;;;5059404;28;20024;-85
2021/03/05 08:31:24;;;;;;;10.27;5.22;;;;;;;;;;5066388;28;20052;-84
2021/03/05 08:33:50;;;;;;;18.90;5.40;;;;;;;;;;5064667;28;20023;-86
2021/03/05 08:36:36;;;;;;;12.77;5.95;;;;;;;;;;5048306;28;20028;-85
2021/03/05 08:39:22;;;;;;;13.32;5.32;;;11.90;53.90;;;;;;5063440;28;20047;-88
2021/03/05 08:41:48;;;;;;;11.88;5.47;;;;;;;;;;5048721;28;20107;-87
2021/03/05 08:44:14;;;;;;;12.15;5.78;;;;;;;;;;5065683;28;20120;-88
2021/03/05 08:46:40;;;;;;;13.85;6.95;;;;;;;;;;5064050;28;20378;-85
2021/03/05 08:49:06;;;;;;;14.93;5.95;;;;;;;;;;5064694;28;20431;-85
2021/03/05 08:51:35;;;;;;;14.13;6.18;;;;;;;;;;5065401;28;20043;-82
2021/03/05 08:54:01;;;;;;;14.50;5.53;;;;;;;;;;5059331;28;20086;-87
2021/03/05 08:56:28;;;;;;;11.52;6.18;;;;;;;;;;5047911;28;20024;-85
2021/03/05 08:59:04;;;;;;;23.10;7.72;;;11.60;55.00;;;;;;5061511;28;20497;-87
2021/03/05 09:01:30;;;;;;;14.82;6.55;;;;;;;;;;5050779;28;20025;-87
2021/03/05 09:04:13;;;;;;;16.83;6.55;;;11.70;54.60;;;;;;5064003;28;20036;-87
2021/03/05 09:06:52;;;;;;;11.35;5.35;;;;;;;;;;5062840;28;20016;-85
2021/03/05 09:09:19;;;;;;;11.95;6.43;;;;;;;;;;5064134;28;20025;-90
2021/03/05 09:11:45;;;;;;;17.67;6.28;;;;;;;;;;5057002;28;20525;-88
2021/03/05 09:14:24;;;;;;;17.08;7.00;;;;;;;;;;5081269;28;20035;-88
2021/03/05 09:17:01;;;;;;;16.58;5.25;;;;;;;;;;5047418;28;20036;-86
2021/03/05 09:19:37;;;;;;;16.93;7.97;;;11.70;53.70;;;;;;5068815;28;20020;-87
2021/03/05 09:22:13;;;;;;;11.18;6.38;;;;;;;;;;5069563;28;20306;-87
2021/03/05 09:24:59;;;;;;;15.18;7.38;;;11.70;53.90;;;;;;5062228;28;20035;-86
2021/03/05 09:27:58;;;;;;;19.80;8.00;;;11.80;54.40;;;;;;5048630;28;20043;-86
2021/03/05 09:30:25;;;;;;;18.77;7.28;;;;;;;;;;4982897;28;20050;-88
2021/03/05 09:32:55;;;;;;;20.10;8.40;;;11.80;53.50;;;;;;4989639;28;20149;-89
2021/03/05 09:35:22;;;;;;;14.68;6.18;;;;;;;;;;4968468;28;20456;-88
2021/03/05 09:37:48;;;;;;;19.45;7.22;;;;;;;;;;4972963;28;20178;-87
2021/03/05 09:40:14;;;;;;;14.77;6.63;;;;;;;;;;4985468;28;20057;-88
2021/03/05 09:42:42;;;;;;;22.08;7.40;;;;;;;;;;4973987;28;20085;-88
2021/03/05 09:45:09;;;;;;;18.38;7.75;;;;;;;;;;4976856;28;20022;-89
2021/03/05 09:47:48;;;;;;;17.38;7.25;;;11.40;74.00;;;;;;4973945;28;20038;-85
2021/03/05 09:50:19;;;;;;;20.77;7.45;;;11.80;53.90;;;;;;4986650;28;20066;-85
2021/03/05 09:52:45;;;;;;;12.52;7.00;;;;;;;;;;4963444;28;20102;-84
2021/03/05 09:55:26;;;;;;;20.58;9.07;;;11.80;53.90;;;;;;4984972;28;20031;-85
2021/03/05 09:57:52;;;;;;;18.88;8.00;;;;;;;;;;4987397;28;20535;-85
2021/03/05 10:00:31;;;;;;;22.70;8.15;;;11.60;54.30;;;;;;4968574;28;20042;-84
2021/03/05 10:03:04;;;;;;;15.75;6.70;;;;;;;;;;4985440;28;20026;-84
2021/03/05 10:05:31;;;;;;;22.50;8.18;;;11.80;54.00;;;;;;4992721;28;20118;-84
2021/03/05 10:07:57;;;;;;;18.67;8.15;;;;;;;;;;5050932;28;20102;-85
2021/03/05 10:10:23;;;;;;;16.08;6.65;;;;;;;;;;5049892;28;20048;-85
2021/03/05 10:12:54;;;;;;;18.85;8.65;;;12.10;73.40;;;;;;5067550;28;20241;-83
2021/03/05 10:15:20;;;;;;;17.65;8.57;;;;;;;;;;5067469;28;20033;-85
2021/03/05 10:17:46;;;;;;;18.90;7.40;;;;;;;;;;5065222;28;20028;-84
2021/03/05 10:20:14;;;;;;;16.10;6.82;;;12.10;53.50;;;;;;5045855;28;20070;-86
2021/03/05 10:22:40;;;;;;;21.08;8.73;;;;;;;;;;5029015;28;20047;-89
2021/03/05 10:25:07;;;;;;;12.98;7.60;;;;;;;;;;5049554;28;20033;-87
2021/03/05 10:27:43;;;;;;;17.38;9.20;;;12.40;73.10;;;;;;5049919;28;20025;-88
2021/03/05 10:30:09;;;;;;;16.60;7.30;;;;;;;;;;5032510;28;20075;-87
2021/03/05 10:32:41;;;;;;;20.25;8.27;;;;;;;;;;5042305;28;20024;-89
2021/03/05 10:35:12;;;;;;;19.85;9.48;;;12.10;53.10;;;;;;5045676;28;20025;-85
2021/03/05 10:37:38;;;;;;;19.35;8.45;;;;;;;;;;5029913;28;20029;-87
2021/03/05 10:40:11;;;;;;;24.48;10.00;;;12.10;53.40;;;;;;5046984;28;20182;-86
2021/03/05 10:42:37;;;;;;;20.63;7.85;;;;;;;;;;5046546;28;20017;-86
2021/03/05 10:45:04;;;;;;;19.40;9.75;;;;;;;;;;5047286;28;20032;-85
2021/03/05 10:47:32;;;;;;;24.83;9.40;;;;;;;;;;5031881;28;20021;-84
2021/03/05 10:49:57;;;;;;;;;;;12.30;54.20;;;;;;5043438;28;20053;-85
2021/03/05 10:52:25;;;;;;;23.75;9.10;;;;;;;;;;5047766;28;19912;-86
2021/03/05 10:54:51;;;;;;;17.42;8.77;;;;;;;;;;5043105;28;20028;-85
2021/03/05 10:57:18;;;;;;;23.95;8.98;;;12.20;53.20;;;;;;5048174;28;20025;-84
2021/03/05 10:59:47;;;;;;;16.92;8.35;;;;;;;;;;5026474;28;20532;-86
2021/03/05 11:02:13;;;;;;;21.30;9.50;;;;;;;;;;5026506;28;20033;-86
2021/03/05 11:04:39;;;;;;;26.25;8.02;;;;;;;;;;5044202;28;20032;-86
2021/03/05 11:07:05;;;;;;;18.48;9.38;;;;;;;;;;5044895;28;20040;-85
2021/03/05 11:09:31;;;;;;;22.25;8.68;;;;;;;;;;5048928;28;20021;-86
2021/03/05 11:11:59;;;;;;;29.50;10.40;;;;;;;;;;5037847;28;20052;-86
2021/03/05 11:14:26;;;;;;;19.20;7.43;;;12.10;53.90;;;;;;5045792;28;20028;-87
2021/03/05 11:16:53;;;;;;;22.33;7.82;;;12.00;74.30;;;;;;5044968;28;20032;-85
2021/03/05 11:19:19;;;;;;;20.98;9.10;;;;;;;;;;5049873;28;20025;-85
2021/03/05 11:21:45;;;;;;;19.15;9.10;;;;;;;;;;5050560;28;20025;-89
2021/03/05 11:24:11;;;;;;;20.38;8.32;;;;;;;;;;5044235;28;20051;-86
2021/03/05 11:26:37;;;;;;;31.48;10.35;;;;;;;;;;5047799;28;20037;-85
2021/03/05 11:29:04;;;;;;;23.20;7.80;;;;;;;;;;5046976;28;20085;-86
2021/03/05 11:31:30;;;;;;;23.58;11.35;;;;;;;;;;5038255;28;20063;-86
2021/03/05 11:33:56;;;;;;;22.13;8.15;;;;;;;;;;5027506;28;20055;-85
2021/03/05 11:36:22;;;;;;;20.45;9.48;;;;;;;;;;5049777;28;20029;-86
2021/03/05 11:38:50;;;;;;;23.02;8.23;;;12.40;52.10;;;;;;5045291;28;20028;-86
2021/03/05 11:41:16;;;;;;;;;;;12.40;52.50;;;;;;5042594;28;20039;-83
2021/03/05 11:43:47;;;;;;;24.63;9.18;;;12.40;52.60;;;;;;5045089;28;20369;-88
2021/03/05 11:46:13;;;;;;;21.80;8.10;;;;;;;;;;5045965;28;20038;-88
2021/03/05 11:48:40;;;;;;;18.58;8.48;;;;;;;;;;5049971;28;20032;-87
2021/03/05 11:51:06;;;;;;;24.35;10.02;;;11.40;51.30;;;;;;5062152;28;20048;-89
2021/03/05 11:53:32;;;;;;;24.63;10.55;;;;;;;;;;5058775;28;20490;-89
2021/03/05 11:55:58;;;;;;;24.05;10.85;;;;;;;;;;5043410;28;20033;-87
2021/03/05 11:58:24;;;;;;;20.83;9.85;;;;;;;;;;5028768;28;20532;-89
2021/03/05 12:00:50;;;;;;;18.27;9.30;;;;;;;;;;5041196;28;20036;-84
2021/03/05 12:03:16;;;;;;;24.17;10.50;;;;;;;;;;5046247;28;20496;-86
2021/03/05 12:05:42;;;;;;;26.45;10.13;;;;;;;;;;5042018;28;20081;-86
2021/03/05 12:08:08;;;;;;;22.65;8.98;;;;;;;;;;5034945;28;20044;-85
2021/03/05 12:10:34;;;;;;;21.90;10.05;;;;;;;;;;5026458;28;20045;-85
2021/03/05 12:13:00;;;;;;;22.73;8.52;;;;;;;;;;5045848;28;20020;-85
2021/03/05 12:15:26;;;;;;;23.55;8.38;;;;;;;;;;5061522;28;20021;-85
2021/03/05 12:17:52;;;;;;;26.48;10.77;;;;;;;;;;5038495;28;20026;-87
2021/03/05 12:20:18;;;;;;;21.88;8.90;;;;;;;;;;5063206;28;20029;-85
2021/03/05 12:22:44;;;;;;;24.75;9.80;;;;;;;;;;5027826;28;20106;-85
2021/03/05 12:25:11;;;;;;;21.83;10.20;;;;;;;;;;5023595;28;20039;-86
2021/03/05 12:27:37;;;;;;;17.92;8.75;;;;;;;;;;5041340;28;20068;-85
2021/03/05 12:30:04;;;;;;;23.50;9.00;;;;;;;;;;5028759;28;20052;-83
2021/03/05 12:32:30;;;;;;;20.48;10.52;;;;;;;;;;5044545;28;20579;-85
2021/03/05 12:34:56;;;;;;;20.10;7.25;;;;;;;;;;5023774;28;20037;-85
2021/03/05 12:37:22;;;;;;;24.92;10.70;;;;;;;;;;5027920;28;20029;-85
2021/03/05 12:39:48;;;;;;;18.20;8.63;;;;;;;;;;5046489;28;20116;-86
2021/03/05 12:42:14;;;;;;;22.30;9.88;;;;;;;;;;5061206;28;20131;-86
2021/03/05 12:44:40;;;;;;;18.35;9.30;;;;;;;;;;5063802;28;20472;-86
2021/03/05 12:47:06;;;;;;;23.15;9.60;;;;;;;;;;5064680;28;20063;-87
2021/03/05 12:49:32;;;;;;;22.15;10.13;;;;;;;;;;5052000;28;20120;-86
2021/03/05 12:51:58;;;;;;;23.60;9.93;;;;;;;;;;5066252;28;20144;-82
2021/03/05 12:54:24;;;;;;;22.58;9.35;;;;;;;;;;5065715;28;20039;-85
2021/03/05 12:56:50;;;;;;;23.88;10.82;;;;;;;;;;5067388;28;20065;-85
2021/03/05 12:59:16;;;;;;;21.60;10.18;;;;;;;;;;5071772;28;20044;-84
2021/03/05 13:01:42;;;;;;;19.83;9.75;;;;;;;;;;5068478;28;20052;-84
2021/03/05 13:04:08;;;;;;;28.42;8.93;;;;;;;;;;5044758;28;20088;-85
2021/03/05 13:06:34;;;;;;;22.25;7.57;;;;;;;;;;5070278;28;20024;-84
2021/03/05 13:09:00;;;;;;;20.35;9.07;;;;;;;;;;5066631;28;20035;-84
2021/03/05 13:11:27;;;;;;;21.95;7.97;;;;;;;;;;5052767;28;20040;-87
2021/03/05 13:13:53;;;;;;;18.88;7.43;;;;;;;;;;5067648;28;20025;-84
2021/03/05 13:16:19;;;;;;;16.77;8.32;;;;;;;;;;5052488;28;20036;-85
2021/03/05 13:18:46;;;;;;;22.52;8.65;;;;;;;;;;5053995;28;20028;-87
2021/03/05 13:21:12;;;;;;;18.93;8.00;;;;;;;;;;5069397;28;20107;-87
2021/03/05 13:23:42;;;;;;;20.25;10.77;;;12.40;51.70;;;;;;5075614;28;20267;-85
2021/03/05 13:26:13;;;;;;;20.25;7.63;;;;;;;;;;5068866;28;20032;-87
2021/03/05 13:28:40;;;;;;;18.83;9.85;;;;;;;;;;5069077;28;20028;-86
2021/03/05 13:31:06;;;;;;;14.13;6.05;;;;;;;;;;5071995;28;20425;-87
2021/03/05 13:33:32;;;;;;;21.35;8.02;;;;;;;;;;5069822;28;20107;-87
2021/03/05 13:35:58;;;;;;;19.55;8.95;;;;;;;;;;5052511;28;20056;-88
2021/03/05 13:38:24;;;;;;;15.30;7.93;;;;;;;;;;5055367;28;20052;-87
2021/03/05 13:40:50;;;;;;;23.23;8.88;;;;;;;;;;5071331;28;20037;-88
2021/03/05 13:43:16;;;;;;;25.98;9.43;;;;;;;;;;5063680;28;20048;-88
2021/03/05 13:45:42;;;;;;;24.08;8.75;;;;;;;;;;5069351;28;20465;-85
2021/03/05 13:48:10;;;;;;;22.23;9.13;;;;;;;;;;5049372;28;20056;-84
2021/03/05 13:50:36;;;;;;;20.17;8.68;;;;;;;;;;5065375;28;20111;-83
2021/03/05 13:53:03;;;;;;;21.60;8.15;;;;;;;;;;5046133;28;20048;-84
2021/03/05 13:55:29;;;;;;;25.02;9.52;;;;;;;;;;5063241;28;20032;-89
2021/03/05 13:57:55;;;;;;;20.05;8.30;;;;;;;;;;5052198;28;20029;-87